Time;durP1;ratioP1;P1;durP2;ratioP2;P2;SDS_P1;SDS_P2;PMS_P1;PMS_P2;Temp;Humidity;BMP_temperature;BMP_pressure;BME280_temperature;BME280_humidity;BME280_pressure;Samples;Min_cycle;Max_cycle;Signal;HPM_P1;HPM_P2
2022/08/18 00:02:01;;;;;;;36.20;33.20;;;21.80;70.50;;;;;;5073275;28;20832;-72
2022/08/18 00:04:28;;;;;;;34.87;31.77;;;21.70;70.70;;;;;;5073212;28;20834;-71
2022/08/18 00:06:55;;;;;;;36.97;33.77;;;21.70;70.90;;;;;;5073629;28;20448;-71
2022/08/18 00:09:22;;;;;;;37.07;33.73;;;21.60;70.90;;;;;;5073233;28;20448;-71
2022/08/18 00:11:48;;;;;;;35.17;32.17;;;21.60;71.10;;;;;;5073835;28;20449;-71
2022/08/18 00:14:19;;;;;;;34.80;31.73;;;21.50;71.30;;;;;;5073457;28;20467;-71
2022/08/18 00:16:46;;;;;;;37.63;34.33;;;21.50;71.60;;;;;;5073171;28;20819;-72
2022/08/18 00:19:14;;;;;;;39.07;35.80;;;21.40;72.00;;;;;;5073238;28;20814;-72
2022/08/18 00:21:41;;;;;;;40.07;36.47;;;21.50;72.50;;;;;;5073184;28;20448;-71
2022/08/18 00:24:08;;;;;;;43.27;39.40;;;21.50;75.00;;;;;;5073307;28;20468;-71
2022/08/18 00:26:34;;;;;;;46.27;41.53;;;21.60;76.70;;;;;;5073054;28;20951;-71
2022/08/18 00:29:01;;;;;;;44.07;39.47;;;21.60;77.60;;;;;;5073101;28;20899;-71
2022/08/18 00:31:28;;;;;;;47.60;42.47;;;21.60;78.90;;;;;;5072994;28;20824;-71
2022/08/18 00:33:55;;;;;;;45.37;40.80;;;21.60;79.60;;;;;;5072855;28;20814;-71
2022/08/18 00:36:23;;;;;;;49.23;43.77;;;21.60;80.10;;;;;;5073149;28;20476;-72
2022/08/18 00:38:50;;;;;;;45.13;40.47;;;21.60;80.50;;;;;;5073192;28;20449;-72
2022/08/18 00:41:16;;;;;;;42.30;38.23;;;21.60;80.60;;;;;;5073207;28;20462;-72
2022/08/18 00:43:45;;;;;;;39.70;36.00;;;21.60;79.50;;;;;;5073107;28;20504;-71
2022/08/18 00:46:16;;;;;;;43.03;38.70;;;21.50;78.30;;;;;;5073190;28;20457;-71
2022/08/18 00:48:43;;;;;;;43.23;38.73;;;21.40;78.00;;;;;;5073193;28;20430;-71
2022/08/18 00:51:14;;;;;;;42.23;38.00;;;21.40;78.10;;;;;;5073038;28;20440;-72
2022/08/18 00:53:46;;;;;;;45.57;41.13;;;21.40;78.90;;;;;;5073525;28;20842;-71
2022/08/18 00:56:16;;;;;;;43.07;39.00;;;21.40;79.70;;;;;;5076656;28;20480;-71
2022/08/18 00:58:49;;;;;;;41.60;37.73;;;21.40;79.60;;;;;;5076580;28;20432;-71
2022/08/18 01:01:19;;;;;;;40.50;36.80;;;21.30;79.10;;;;;;5076580;28;20424;-72
2022/08/18 01:03:51;;;;;;;39.17;35.43;;;21.40;79.00;;;;;;5076407;28;20480;-71
2022/08/18 01:06:27;;;;;;;41.57;37.90;;;21.30;77.70;;;;;;5076796;28;20433;-71
2022/08/18 01:08:55;;;;;;;43.20;39.10;;;21.30;77.10;;;;;;5076748;28;20432;-72
2022/08/18 01:11:22;;;;;;;39.40;35.90;;;21.30;77.20;;;;;;5076662;28;20449;-72
2022/08/18 01:13:49;;;;;;;37.40;33.83;;;21.30;77.30;;;;;;5076528;28;20483;-71
2022/08/18 01:21:50;;;;;;;47.80;42.90;;;21.30;78.70;;;;;;5076488;28;20539;-71
2022/08/18 01:24:21;;;;;;;53.20;47.60;;;21.30;80.10;;;;;;5076401;28;20475;-72
2022/08/18 01:26:49;;;;;;;51.20;46.20;;;21.20;82.20;;;;;;5076480;28;20426;-71
2022/08/18 01:29:18;;;;;;;49.13;44.43;;;21.20;83.70;;;;;;5076337;28;20445;-71
2022/08/18 01:31:48;;;;;;;48.90;44.10;;;21.10;84.50;;;;;;5076455;28;20535;-72
2022/08/18 01:34:20;;;;;;;50.27;45.37;;;21.10;85.40;;;;;;5076113;28;20504;-71
2022/08/18 01:36:51;;;;;;;58.03;49.60;;;21.20;85.90;;;;;;5076175;28;20518;-71
2022/08/18 01:39:20;;;;;;;61.03;54.50;;;21.20;86.10;;;;;;5075841;28;20984;-71
2022/08/18 01:41:47;;;;;;;64.17;57.10;;;21.20;87.50;;;;;;5076016;28;20520;-71
2022/08/18 01:44:14;;;;;;;63.10;56.40;;;21.10;88.70;;;;;;5075691;28;21013;-71
2022/08/18 01:46:41;;;;;;;74.00;52.97;;;21.00;89.80;;;;;;5075874;28;20824;-72
2022/08/18 01:49:09;;;;;;;92.77;53.97;;;21.00;90.40;;;;;;5076135;28;20534;-72
2022/08/18 01:51:40;;;;;;;58.70;52.30;;;20.90;91.00;;;;;;5076071;28;20453;-71
2022/08/18 01:54:07;;;;;;;59.60;53.10;;;20.80;91.40;;;;;;5076081;28;20506;-71
2022/08/18 01:56:35;;;;;;;67.77;55.67;;;20.80;91.80;;;;;;5075881;28;20492;-71
2022/08/18 01:59:02;;;;;;;66.70;56.13;;;20.70;92.20;;;;;;5076356;28;20456;-71
2022/08/18 02:01:29;;;;;;;59.80;53.37;;;20.70;92.40;;;;;;5077039;28;20845;-72
2022/08/18 02:03:59;;;;;;;59.27;53.07;;;20.60;92.70;;;;;;5077857;28;20469;-71
2022/08/18 02:06:26;;;;;;;58.67;52.33;;;20.60;92.80;;;;;;5078476;28;20437;-71
2022/08/18 02:08:53;;;;;;;58.30;49.60;;;20.60;92.90;;;;;;5078187;28;20445;-71
2022/08/18 02:11:20;;;;;;;57.03;50.50;;;20.60;93.00;;;;;;5075517;28;20940;-71
2022/08/18 02:13:48;;;;;;;58.70;52.60;;;20.50;92.90;;;;;;5075992;28;20472;-71
2022/08/18 02:16:15;;;;;;;67.30;51.30;;;20.50;93.20;;;;;;5075332;28;20480;-71
2022/08/18 02:18:42;;;;;;;58.23;52.30;;;20.40;93.30;;;;;;5075482;28;20540;-71
2022/08/18 02:21:12;;;;;;;59.97;52.67;;;20.40;93.50;;;;;;5075376;28;20477;-71
2022/08/18 02:23:40;;;;;;;58.10;51.67;;;20.40;93.80;;;;;;5075499;28;20464;-72
2022/08/18 02:26:11;;;;;;;57.87;51.73;;;20.40;94.00;;;;;;5075221;28;20520;-71
2022/08/18 02:28:38;;;;;;;55.40;49.70;;;20.40;94.10;;;;;;5075226;28;20807;-71
2022/08/18 02:31:08;;;;;;;63.47;53.57;;;20.40;94.30;;;;;;5075145;28;20452;-71
2022/08/18 02:33:35;;;;;;;56.87;50.80;;;20.40;94.40;;;;;;5075770;28;20461;-71
2022/08/18 02:36:02;;;;;;;68.97;61.88;;;20.40;94.50;;;;;;5073708;28;20446;-71
2022/08/18 02:38:30;;;;;;;68.97;59.20;;;20.50;94.60;;;;;;5075114;28;20213;-71
2022/08/18 02:40:58;;;;;;;72.30;59.43;;;20.50;94.60;;;;;;5074942;28;20452;-72
2022/08/18 02:43:26;;;;;;;67.10;58.73;;;20.50;94.60;;;;;;5074889;28;20500;-71
2022/08/18 02:45:52;;;;;;;67.63;58.37;;;20.50;94.60;;;;;;5074553;28;20449;-71
2022/08/18 02:48:23;;;;;;;65.17;56.60;;;20.50;94.80;;;;;;5074513;28;20954;-71
2022/08/18 02:50:50;;;;;;;68.23;58.73;;;20.40;94.90;;;;;;5074538;28;20960;-71
2022/08/18 02:53:21;;;;;;;68.13;57.17;;;20.40;95.00;;;;;;5074546;28;20491;-71
2022/08/18 02:55:48;;;;;;;61.77;53.20;;;20.40;95.10;;;;;;5074141;28;20482;-71
2022/08/18 02:58:15;;;;;;;61.20;53.60;;;20.40;95.10;;;;;;5074677;28;20429;-71
2022/08/18 03:00:42;;;;;;;65.27;52.37;;;20.40;95.50;;;;;;5074607;28;20453;-71
2022/08/18 03:03:09;;;;;;;60.07;51.93;;;20.40;95.70;;;;;;5074429;28;20469;-71
2022/08/18 03:05:37;;;;;;;61.33;53.40;;;20.30;95.80;;;;;;5074432;28;20448;-72
2022/08/18 03:08:04;;;;;;;61.30;52.80;;;20.40;95.90;;;;;;5074388;28;20498;-70
2022/08/18 03:10:31;;;;;;;64.57;54.47;;;20.40;95.90;;;;;;5074377;28;20449;-70
2022/08/18 03:12:58;;;;;;;64.70;56.93;;;20.30;96.00;;;;;;5074195;28;20465;-70
2022/08/18 03:15:25;;;;;;;62.50;54.10;;;20.40;96.30;;;;;;5074321;28;20445;-69
2022/08/18 03:17:52;;;;;;;61.40;54.43;;;20.40;96.30;;;;;;5073170;28;20542;-69
2022/08/18 03:20:18;;;;;;;62.77;53.10;;;20.40;96.40;;;;;;5074214;28;20452;-70
2022/08/18 03:22:47;;;;;;;64.60;54.73;;;20.40;96.30;;;;;;5073939;28;20986;-70
2022/08/18 03:25:13;;;;;;;67.90;55.03;;;20.40;96.20;;;;;;5074214;28;20478;-70
2022/08/18 03:27:40;;;;;;;68.63;54.37;;;20.50;96.30;;;;;;5073950;28;20449;-70
2022/08/18 03:30:08;;;;;;;64.27;51.83;;;20.50;96.40;;;;;;5073968;28;20445;-70
2022/08/18 03:32:35;;;;;;;66.57;52.57;;;20.50;96.30;;;;;;5073855;28;20490;-70
2022/08/18 03:35:01;;;;;;;62.97;50.60;;;20.50;96.30;;;;;;5073582;28;20939;-69
2022/08/18 03:37:28;;;;;;;62.77;51.30;;;20.50;96.30;;;;;;5073766;28;20816;-69
2022/08/18 03:39:56;;;;;;;63.37;50.20;;;20.50;96.40;;;;;;5073914;28;20451;-69
2022/08/18 03:42:23;;;;;;;57.93;50.83;;;20.50;96.40;;;;;;5073736;28;20465;-69
2022/08/18 03:44:51;;;;;;;55.80;47.07;;;20.50;96.50;;;;;;5073787;28;20440;-71
2022/08/18 03:47:18;;;;;;;53.90;46.67;;;20.50;96.50;;;;;;5073803;28;20445;-71
2022/08/18 03:49:44;;;;;;;50.57;44.80;;;20.40;96.30;;;;;;5073440;28;20500;-71
2022/08/18 03:52:11;;;;;;;51.63;44.67;;;20.40;96.40;;;;;;5073648;28;20429;-70
2022/08/18 03:54:39;;;;;;;52.50;45.90;;;20.50;96.30;;;;;;5073637;28;20452;-71
2022/08/18 03:57:09;;;;;;;50.73;44.03;;;20.50;95.80;;;;;;5073106;28;20481;-72
2022/08/18 03:59:37;;;;;;;56.07;47.27;;;20.50;96.00;;;;;;5073342;28;20994;-72
2022/08/18 04:02:05;;;;;;;53.97;46.70;;;20.60;96.00;;;;;;5073570;28;20436;-70
2022/08/18 04:04:32;;;;;;;50.17;44.17;;;20.60;96.10;;;;;;5073616;28;20832;-71
2022/08/18 04:07:03;;;;;;;54.30;46.50;;;20.60;96.10;;;;;;5073488;28;20445;-71
2022/08/18 04:09:31;;;;;;;57.23;47.70;;;20.60;96.10;;;;;;5073624;28;20421;-72
2022/08/18 04:12:02;;;;;;;54.03;45.73;;;20.60;96.10;;;;;;5073114;28;20498;-71
2022/08/18 04:14:30;;;;;;;56.70;46.93;;;20.60;96.20;;;;;;5073482;28;20434;-72
2022/08/18 04:16:58;;;;;;;56.47;46.90;;;20.60;96.40;;;;;;5073208;28;20495;-71
2022/08/18 04:19:25;;;;;;;52.03;45.80;;;20.60;96.30;;;;;;5073361;28;20437;-72
2022/08/18 04:21:53;;;;;;;57.50;45.07;;;20.50;96.30;;;;;;5073343;28;20456;-71
2022/08/18 04:24:20;;;;;;;53.27;45.47;;;20.60;96.40;;;;;;5073288;28;20495;-72
2022/08/18 04:26:48;;;;;;;50.93;44.20;;;20.60;96.30;;;;;;5073416;28;20445;-72
2022/08/18 04:29:19;;;;;;;51.30;45.67;;;20.70;96.30;;;;;;5076830;28;20506;-72
2022/08/18 04:31:48;;;;;;;50.43;43.13;;;20.70;96.20;;;;;;5077137;28;20527;-72
2022/08/18 04:34:15;;;;;;;50.03;44.17;;;20.70;96.20;;;;;;5076994;28;20483;-73
2022/08/18 04:36:42;;;;;;;53.13;44.83;;;20.70;96.20;;;;;;5077318;28;20476;-73
2022/08/18 04:39:12;;;;;;;47.63;42.07;;;20.60;96.20;;;;;;5077282;28;20456;-73
2022/08/18 04:41:42;;;;;;;51.13;43.27;;;20.70;96.30;;;;;;5076932;28;20449;-72
2022/08/18 04:44:10;;;;;;;49.93;44.37;;;20.70;96.30;;;;;;5077145;28;20512;-73
2022/08/18 04:46:39;;;;;;;53.10;45.90;;;20.70;96.40;;;;;;5077255;28;20477;-73
2022/08/18 04:49:08;;;;;;;56.30;47.63;;;20.70;96.40;;;;;;5077117;28;20448;-72
2022/08/18 04:51:35;;;;;;;53.67;44.77;;;20.70;96.40;;;;;;5077139;28;20456;-73
2022/08/18 04:54:01;;;;;;;54.83;46.40;;;20.70;96.40;;;;;;5076996;28;20942;-73
2022/08/18 04:56:31;;;;;;;54.27;47.27;;;20.70;96.40;;;;;;5076646;28;20452;-73
2022/08/18 04:59:00;;;;;;;54.80;46.20;;;20.70;96.20;;;;;;5077903;28;20187;-73
2022/08/18 05:01:29;;;;;;;52.90;44.40;;;20.70;96.30;;;;;;5077088;28;20453;-73
2022/08/18 05:03:58;;;;;;;53.20;42.13;;;20.80;96.20;;;;;;5077400;28;20473;-72
2022/08/18 05:06:28;;;;;;;55.47;46.10;;;20.80;96.10;;;;;;5077664;28;20468;-74
2022/08/18 05:08:57;;;;;;;54.60;45.00;;;20.90;95.90;;;;;;5078147;28;20954;-74
2022/08/18 05:11:27;;;;;;;51.77;43.80;;;21.00;95.60;;;;;;5078632;28;20838;-73
2022/08/18 05:13:56;;;;;;;56.67;45.37;;;21.10;95.40;;;;;;5078244;28;20556;-72
2022/08/18 05:16:23;;;;;;;51.03;41.87;;;21.20;95.20;;;;;;5078083;28;20480;-73
2022/08/18 05:18:52;;;;;;;51.07;45.27;;;21.20;94.80;;;;;;5077706;28;20457;-73
2022/08/18 05:21:20;;;;;;;47.30;41.00;;;21.20;94.90;;;;;;5077899;28;20455;-72
2022/08/18 05:23:50;;;;;;;47.20;41.47;;;21.30;95.10;;;;;;5077927;28;20472;-71
2022/08/18 05:26:19;;;;;;;50.70;43.67;;;21.20;94.70;;;;;;5076666;28;20452;-70
2022/08/18 05:28:46;;;;;;;47.43;40.63;;;21.20;95.00;;;;;;5076707;28;20425;-71
2022/08/18 05:31:16;;;;;;;45.17;40.20;;;21.30;95.00;;;;;;5076284;28;20449;-71
2022/08/18 05:33:43;;;;;;;50.13;39.27;;;21.30;94.90;;;;;;5076153;28;20460;-71
2022/08/18 05:36:25;;;;;;;50.80;43.40;;;21.40;94.80;;;;;;5075949;28;20449;-71
2022/08/18 05:38:58;;;;;;;51.60;41.27;;;21.40;94.40;;;;;;5075909;28;20436;-71
2022/08/18 05:41:32;;;;;;;46.50;41.50;;;21.50;94.60;;;;;;5076413;28;20460;-71
2022/08/18 05:43:59;;;;;;;48.43;42.13;;;21.50;94.30;;;;;;5075657;28;20813;-71
2022/08/18 05:46:42;;;;;;;49.13;43.70;;;21.60;94.30;;;;;;5076004;28;20808;-71
2022/08/18 05:49:10;;;;;;;46.90;41.70;;;21.70;94.30;;;;;;5076016;28;20425;-71
2022/08/18 05:51:42;;;;;;;48.50;41.17;;;21.70;94.30;;;;;;5075986;28;20444;-71
2022/08/18 05:57:00;;;;;;;45.30;39.20;;;21.80;94.00;;;;;;5075469;28;20479;-71
2022/08/18 05:59:30;;;;;;;46.40;38.33;;;21.80;94.10;;;;;;5075826;28;20433;-71
2022/08/18 06:02:04;;;;;;;43.57;38.77;;;21.80;93.50;;;;;;5075764;28;20444;-71
2022/08/18 06:04:41;;;;;;;43.40;38.80;;;21.90;93.60;;;;;;5075704;28;20440;-71
2022/08/18 06:07:12;;;;;;;39.27;35.13;;;21.90;93.70;;;;;;5075666;28;20436;-71
2022/08/18 06:09:46;;;;;;;42.53;38.00;;;22.00;93.80;;;;;;5075592;28;20433;-71
2022/08/18 06:12:23;;;;;;;44.87;38.70;;;22.00;93.70;;;;;;5075611;28;20444;-70
2022/08/18 06:14:51;;;;;;;43.70;38.90;;;22.00;93.70;;;;;;5075248;28;20922;-71
2022/08/18 06:17:35;;;;;;;43.80;38.77;;;22.00;93.70;;;;;;5075169;28;20485;-71
2022/08/18 06:20:13;;;;;;;42.87;37.83;;;22.00;93.70;;;;;;5075166;28;20436;-71
2022/08/18 06:22:47;;;;;;;46.10;38.70;;;22.00;93.60;;;;;;5075658;28;20507;-71
2022/08/18 06:25:25;;;;;;;42.13;35.90;;;22.00;93.70;;;;;;5075697;28;20905;-71
2022/08/18 06:27:57;;;;;;;46.20;38.30;;;21.90;93.50;;;;;;5075134;28;20425;-71
2022/08/18 06:30:31;;;;;;;43.80;38.17;;;21.90;93.40;;;;;;5075306;28;20479;-71
2022/08/18 06:33:12;;;;;;;44.13;39.43;;;21.90;93.50;;;;;;5075323;28;20471;-70
2022/08/18 06:35:48;;;;;;;44.03;38.00;;;21.80;93.50;;;;;;5075042;28;20433;-71
2022/08/18 06:38:41;;;;;;;46.37;38.17;;;21.80;93.70;;;;;;5075109;28;20464;-71
2022/08/18 06:41:17;;;;;;;49.10;40.17;;;21.80;93.60;;;;;;5074896;28;20806;-71
2022/08/18 06:43:57;;;;;;;46.57;39.60;;;21.80;93.70;;;;;;5075281;28;20468;-71
2022/08/18 06:46:33;;;;;;;47.87;39.93;;;21.70;93.70;;;;;;5075563;28;20429;-71
2022/08/18 06:49:04;;;;;;;43.87;39.17;;;21.80;93.80;;;;;;5075397;28;20445;-71
2022/08/18 06:51:32;;;;;;;45.10;40.27;;;21.80;93.90;;;;;;5073368;28;20787;-71
2022/08/18 06:54:01;;;;;;;44.77;39.20;;;21.70;93.80;;;;;;5074776;28;20464;-71
2022/08/18 06:56:46;;;;;;;46.57;39.10;;;21.80;94.00;;;;;;5074211;28;20958;-71
2022/08/18 06:59:16;;;;;;;44.37;38.43;;;21.70;93.90;;;;;;5074662;28;20464;-71
2022/08/18 07:01:44;;;;;;;46.07;39.43;;;21.80;93.90;;;;;;5074541;28;20445;-71
2022/08/18 07:04:31;;;;;;;44.83;39.10;;;21.80;93.70;;;;;;5074404;28;20874;-71
2022/08/18 07:06:58;;;;;;;44.70;37.83;;;21.80;93.70;;;;;;5074472;28;20430;-71
2022/08/18 07:09:32;;;;;;;45.13;40.23;;;21.80;93.50;;;;;;5074171;28;20911;-71
2022/08/18 07:12:04;;;;;;;47.73;39.47;;;21.80;93.70;;;;;;5074246;28;20428;-71
2022/08/18 07:14:41;;;;;;;47.23;39.70;;;21.80;93.80;;;;;;5074349;28;20425;-71
2022/08/18 07:17:10;;;;;;;43.40;37.03;;;21.80;94.10;;;;;;5073868;28;20899;-71
2022/08/18 07:19:36;;;;;;;42.27;37.60;;;21.90;93.90;;;;;;5074235;28;20433;-71
2022/08/18 07:22:06;;;;;;;43.10;38.43;;;21.90;93.80;;;;;;5073658;28;20547;-70
2022/08/18 07:24:37;;;;;;;42.20;37.67;;;21.90;93.90;;;;;;5074080;28;20463;-70
2022/08/18 07:27:08;;;;;;;41.77;37.37;;;21.90;93.90;;;;;;5073966;28;20467;-70
2022/08/18 07:29:37;;;;;;;41.97;37.43;;;21.90;93.90;;;;;;5074019;28;20437;-70
2022/08/18 07:32:10;;;;;;;39.93;35.93;;;22.00;93.80;;;;;;5073812;28;20448;-71
2022/08/18 07:34:41;;;;;;;41.03;36.83;;;22.00;93.80;;;;;;5073898;28;20473;-71
2022/08/18 07:37:13;;;;;;;41.83;37.50;;;22.00;93.70;;;;;;5073855;28;20428;-71
2022/08/18 07:39:47;;;;;;;39.83;35.70;;;22.10;93.60;;;;;;5073920;28;20433;-71
2022/08/18 07:42:21;;;;;;;39.60;35.50;;;22.00;93.30;;;;;;5073777;28;20433;-71
2022/08/18 07:44:58;;;;;;;41.03;36.33;;;22.10;93.40;;;;;;5073500;28;20942;-71
2022/08/18 07:47:31;;;;;;;41.23;36.73;;;22.10;93.40;;;;;;5073850;28;20789;-71
2022/08/18 07:49:58;;;;;;;49.70;37.73;;;22.10;93.30;;;;;;5073801;28;20425;-71
2022/08/18 07:52:29;;;;;;;40.93;35.97;;;22.10;93.40;;;;;;5073616;28;20461;-71
2022/08/18 07:55:04;;;;;;;43.23;38.60;;;22.10;93.20;;;;;;5073764;28;20429;-71
2022/08/18 07:57:42;;;;;;;38.73;34.50;;;22.10;93.10;;;;;;5073332;28;20487;-71
2022/08/18 08:00:16;;;;;;;37.70;33.70;;;22.10;93.20;;;;;;5073909;28;20433;-71
2022/08/18 08:02:56;;;;;;;35.43;31.87;;;22.10;93.20;;;;;;5073362;28;20472;-71
2022/08/18 08:05:38;;;;;;;34.47;30.87;;;22.20;92.90;;;;;;5074028;28;20502;-71
2022/08/18 08:08:15;;;;;;;32.57;29.47;;;22.20;92.60;;;;;;5073899;28;20437;-71
2022/08/18 08:10:50;;;;;;;31.30;28.20;;;22.30;92.60;;;;;;5074038;28;20779;-71
2022/08/18 08:13:23;;;;;;;27.87;25.07;;;22.40;92.50;;;;;;5075199;28;20472;-71
2022/08/18 08:16:01;;;;;;;31.10;27.87;;;22.40;92.20;;;;;;5075879;28;20409;-71
2022/08/18 08:18:39;;;;;;;32.83;29.50;;;22.60;91.90;;;;;;5075222;28;20468;-71
2022/08/18 08:21:10;;;;;;;29.00;26.10;;;22.60;91.40;;;;;;5074423;28;20784;-71
2022/08/18 08:23:47;;;;;;;32.90;29.50;;;22.70;91.60;;;;;;5073933;28;20472;-71
2022/08/18 08:26:26;;;;;;;32.80;29.50;;;22.70;91.20;;;;;;5073722;28;20504;-71
2022/08/18 08:29:05;;;;;;;30.47;27.37;;;22.70;91.80;;;;;;5073447;28;20433;-71
2022/08/18 08:31:38;;;;;;;27.60;24.90;;;22.60;91.40;;;;;;5073040;28;20923;-71
2022/08/18 08:34:12;;;;;;;27.77;25.10;;;22.60;91.50;;;;;;5073240;28;20469;-71
2022/08/18 08:36:41;;;;;;;25.83;23.43;;;22.80;91.40;;;;;;5073827;28;20444;-71
2022/08/18 08:39:14;;;;;;;25.03;22.27;;;22.90;91.10;;;;;;5073220;28;20484;-71
2022/08/18 08:41:45;;;;;;;23.70;21.30;;;23.10;90.90;;;;;;5072899;28;20816;-71
2022/08/18 08:44:20;;;;;;;20.90;18.90;;;23.20;90.50;;;;;;5073130;28;20468;-71
2022/08/18 08:46:51;;;;;;;18.53;16.90;;;23.50;89.90;;;;;;5073219;28;20475;-71
2022/08/18 08:49:28;;;;;;;15.87;14.47;;;23.70;89.20;;;;;;5073136;28;20490;-71
2022/08/18 08:52:02;;;;;;;16.60;14.90;;;23.90;86.80;;;;;;5073238;28;20433;-71
2022/08/18 08:54:41;;;;;;;16.30;14.80;;;24.10;84.60;;;;;;5073086;28;20437;-71
2022/08/18 08:57:10;;;;;;;15.63;14.23;;;24.30;81.90;;;;;;5072780;28;20461;-71
2022/08/18 08:59:40;;;;;;;14.17;12.93;;;24.60;80.30;;;;;;5072983;28;20475;-70
2022/08/18 09:02:24;;;;;;;15.40;14.10;;;24.80;78.40;;;;;;5072957;28;20570;-71
2022/08/18 09:05:00;;;;;;;14.57;13.13;;;25.10;76.00;;;;;;5072789;28;20927;-71
2022/08/18 09:07:52;;;;;;;13.83;12.73;;;25.30;75.20;;;;;;5073020;28;20452;-70
2022/08/18 09:10:46;;;;;;;12.90;11.87;;;25.60;73.40;;;;;;5073089;28;20442;-70
2022/08/18 09:13:37;;;;;;;12.77;11.47;;;25.80;73.20;;;;;;5073253;28;20479;-70
2022/08/18 09:16:18;;;;;;;12.33;11.23;;;26.00;69.10;;;;;;5075797;28;20876;-70
2022/08/18 09:18:55;;;;;;;12.40;11.27;;;26.10;68.40;;;;;;5076777;28;20465;-70
2022/08/18 09:21:37;;;;;;;11.60;10.50;;;26.30;67.70;;;;;;5076867;28;20435;-70
2022/08/18 09:24:18;;;;;;;12.60;11.50;;;26.40;66.90;;;;;;5076989;28;20477;-70
2022/08/18 09:26:50;;;;;;;11.93;10.80;;;26.70;65.40;;;;;;5076666;28;20425;-70
2022/08/18 09:29:22;;;;;;;10.73;9.93;;;27.00;64.10;;;;;;5076140;28;20907;-70
2022/08/18 09:32:29;;;;;;;10.97;9.97;;;27.30;62.10;;;;;;5076645;28;20499;-70
2022/08/18 09:35:23;;;;;;;8.90;8.10;;;27.60;60.90;;;;;;5076039;28;20814;-70
2022/08/18 09:43:33;;;;;;;15.33;12.27;;;28.00;58.20;;;;;;5075719;28;20969;-70
2022/08/18 09:46:03;;;;;;;11.30;10.20;;;28.10;58.10;;;;;;5076081;28;20425;-70
2022/08/18 09:48:34;;;;;;;10.17;9.30;;;28.00;57.90;;;;;;5075717;28;20968;-71
2022/08/18 09:51:22;;;;;;;13.03;11.83;;;28.00;57.60;;;;;;5075976;28;20433;-71
2022/08/18 09:54:05;;;;;;;9.90;8.90;;;28.00;56.70;;;;;;5075917;28;20472;-70
2022/08/18 09:57:16;;;;;;;12.33;11.10;;;27.90;56.70;;;;;;5075679;28;20463;-70
2022/08/18 10:00:21;;;;;;;10.60;8.73;;;27.90;57.00;;;;;;5075473;28;20975;-71
2022/08/18 10:03:27;;;;;;;9.50;8.33;;;27.90;57.10;;;;;;5075690;28;20460;-71
2022/08/18 10:06:12;;;;;;;12.00;10.90;;;27.90;56.90;;;;;;5075742;28;20482;-71
2022/08/18 10:09:07;;;;;;;9.60;8.90;;;27.90;56.90;;;;;;5075648;28;20425;-72
2022/08/18 10:11:44;;;;;;;14.00;11.77;;;27.90;56.90;;;;;;5075661;28;20436;-72
2022/08/18 10:14:31;;;;;;;8.57;7.80;;;27.90;56.80;;;;;;5075503;28;20461;-71
2022/08/18 10:17:11;;;;;;;10.83;10.03;;;28.00;56.40;;;;;;5075540;28;20436;-71
2022/08/18 10:19:44;;;;;;;10.40;9.60;;;28.30;56.60;;;;;;5075494;28;20477;-70
2022/08/18 10:22:40;;;;;;;10.90;9.90;;;28.60;55.00;;;;;;5075378;28;20442;-70
2022/08/18 10:25:10;;;;;;;9.80;8.57;;;28.90;54.50;;;;;;5075443;28;20517;-70
2022/08/18 10:27:51;;;;;;;8.80;8.00;;;29.20;53.30;;;;;;5075260;28;20433;-70
2022/08/18 10:30:46;;;;;;;8.20;7.40;;;29.60;52.20;;;;;;5075340;28;20436;-71
2022/08/18 10:33:52;;;;;;;6.90;6.23;;;30.00;51.10;;;;;;5074951;28;20989;-71
2022/08/18 10:36:37;;;;;;;10.50;9.60;;;30.20;50.50;;;;;;5074698;28;20502;-70
2022/08/18 10:39:07;;;;;;;6.77;6.27;;;30.40;49.80;;;;;;5075050;28;20465;-70
2022/08/18 10:41:36;;;;;;;7.47;6.87;;;30.60;49.50;;;;;;5074793;28;20437;-70
2022/08/18 10:44:05;;;;;;;9.50;8.83;;;31.00;48.80;;;;;;5074871;28;20469;-70
2022/08/18 10:46:35;;;;;;;8.33;7.73;;;31.30;46.10;;;;;;5074932;28;20429;-70
2022/08/18 10:49:20;;;;;;;9.83;8.90;;;31.50;46.00;;;;;;5074584;28;20899;-71
2022/08/18 10:52:17;;;;;;;7.20;6.70;;;31.60;44.90;;;;;;5074908;28;20486;-70
2022/08/18 10:55:07;;;;;;;7.53;7.03;;;31.80;45.10;;;;;;5074843;28;20429;-70
2022/08/18 10:57:44;;;;;;;7.80;7.20;;;32.00;44.50;;;;;;5074241;28;20482;-70
2022/08/18 11:00:17;;;;;;;7.70;7.10;;;32.10;44.10;;;;;;5074730;28;20542;-70
2022/08/18 11:03:05;;;;;;;9.07;8.17;;;32.20;44.00;;;;;;5074347;28;20477;-70
2022/08/18 11:05:32;;;;;;;5.77;5.30;;;32.50;42.80;;;;;;5074428;28;20903;-70
2022/08/18 11:08:03;;;;;;;10.13;9.33;;;32.50;42.80;;;;;;5074725;28;20851;-70
2022/08/18 11:10:39;;;;;;;7.13;6.53;;;32.50;42.20;;;;;;5074725;28;20447;-70
2022/08/18 11:13:14;;;;;;;7.43;6.87;;;32.70;42.90;;;;;;5074673;28;20843;-70
2022/08/18 11:15:52;;;;;;;6.93;6.43;;;32.80;42.30;;;;;;5075041;28;20439;-71
2022/08/18 11:18:32;;;;;;;6.10;5.70;;;32.80;41.90;;;;;;5074726;28;20481;-70
2022/08/18 11:21:38;;;;;;;7.40;6.80;;;32.70;42.00;;;;;;5076172;28;20437;-70
2022/08/18 11:24:08;;;;;;;9.00;8.10;;;32.70;41.90;;;;;;5073913;28;20479;-70
2022/08/18 11:26:39;;;;;;;6.70;6.13;;;32.60;41.40;;;;;;5076752;28;20439;-70
2022/08/18 11:29:34;;;;;;;6.03;5.53;;;32.40;41.90;;;;;;5074143;28;20429;-69
2022/08/18 11:32:05;;;;;;;6.10;5.60;;;32.10;42.70;;;;;;5074423;28;20425;-70
2022/08/18 11:34:38;;;;;;;6.53;5.50;;;31.90;43.40;;;;;;5074089;28;20432;-71
2022/08/18 11:37:07;;;;;;;6.40;5.90;;;31.70;43.40;;;;;;5074497;28;20433;-70
2022/08/18 11:39:42;;;;;;;6.63;5.97;;;31.40;43.80;;;;;;5073517;28;20483;-71
2022/08/18 11:42:14;;;;;;;6.33;5.83;;;31.20;44.40;;;;;;5073810;28;20455;-71
2022/08/18 11:44:41;;;;;;;9.63;7.33;;;31.00;44.90;;;;;;5073574;28;20927;-70
2022/08/18 11:47:13;;;;;;;6.67;6.17;;;30.70;45.50;;;;;;5073736;28;20941;-70
2022/08/18 11:49:51;;;;;;;6.60;6.00;;;30.40;46.20;;;;;;5074091;28;20425;-70
2022/08/18 11:52:23;;;;;;;7.00;5.57;;;30.20;46.90;;;;;;5073831;28;20425;-71
2022/08/18 11:54:51;;;;;;;6.13;5.63;;;30.00;47.40;;;;;;5074067;28;20433;-71
2022/08/18 11:57:52;;;;;;;5.90;4.60;;;29.90;47.60;;;;;;5073671;28;20463;-71
2022/08/18 12:00:56;;;;;;;5.83;5.30;;;30.00;47.30;;;;;;5073958;28;20468;-71
2022/08/18 12:03:30;;;;;;;6.23;5.63;;;30.20;47.50;;;;;;5074255;28;20562;-69
2022/08/18 12:06:00;;;;;;;6.50;5.90;;;30.30;47.00;;;;;;5073945;28;20815;-70
2022/08/18 12:08:34;;;;;;;7.17;6.57;;;30.40;46.70;;;;;;5073696;28;20425;-71
2022/08/18 12:11:15;;;;;;;6.07;5.57;;;30.30;45.50;;;;;;5073661;28;20428;-71
2022/08/18 12:13:46;;;;;;;6.93;6.40;;;30.10;46.20;;;;;;5073484;28;20460;-71
2022/08/18 12:16:16;;;;;;;5.70;5.30;;;30.10;46.90;;;;;;5073181;28;20984;-71
2022/08/18 12:18:43;;;;;;;8.63;5.53;;;30.20;46.60;;;;;;5073412;28;20477;-71
2022/08/18 12:21:10;;;;;;;4.40;4.10;;;30.30;46.00;;;;;;5073392;28;20449;-70
2022/08/18 12:23:41;;;;;;;4.50;4.20;;;30.50;45.30;;;;;;5072993;28;20998;-70
2022/08/18 12:26:09;;;;;;;10.30;5.80;;;31.50;44.60;;;;;;5073146;28;20799;-70
2022/08/18 12:28:36;;;;;;;5.83;5.43;;;32.70;42.10;;;;;;5073033;28;20452;-70
2022/08/18 12:31:04;;;;;;;6.63;5.10;;;34.00;38.80;;;;;;5073085;28;20432;-71
2022/08/18 12:33:31;;;;;;;6.97;5.73;;;34.80;36.70;;;;;;5073238;28;20464;-70
2022/08/18 12:35:58;;;;;;;5.70;5.20;;;35.10;35.70;;;;;;5073432;28;20432;-70
2022/08/18 12:38:25;;;;;;;5.63;4.90;;;34.90;35.60;;;;;;5073234;28;20449;-71
2022/08/18 12:40:52;;;;;;;5.53;5.03;;;34.60;36.60;;;;;;5073433;28;20451;-70
2022/08/18 12:43:19;;;;;;;5.90;5.40;;;34.20;37.50;;;;;;5073220;28;20497;-70
2022/08/18 12:45:46;;;;;;;6.80;6.30;;;33.70;38.20;;;;;;5073062;28;20938;-70
2022/08/18 12:48:14;;;;;;;8.23;7.73;;;33.30;38.80;;;;;;5072949;28;20906;-70
2022/08/18 12:50:41;;;;;;;7.93;7.33;;;32.90;39.60;;;;;;5077164;28;20441;-70
2022/08/18 12:53:10;;;;;;;8.20;7.60;;;32.50;40.50;;;;;;5076809;28;20474;-70
2022/08/18 12:55:41;;;;;;;7.73;7.07;;;32.10;41.50;;;;;;5077068;28;20451;-71
2022/08/18 12:58:08;;;;;;;9.17;6.90;;;31.80;42.10;;;;;;5076619;28;20468;-71
2022/08/18 13:00:36;;;;;;;7.77;7.27;;;31.50;42.50;;;;;;5076858;28;20461;-71
2022/08/18 13:03:03;;;;;;;8.93;8.20;;;31.30;43.10;;;;;;5076470;28;20989;-72
2022/08/18 13:05:31;;;;;;;7.80;7.10;;;31.10;43.60;;;;;;5076821;28;20445;-71
2022/08/18 13:08:00;;;;;;;8.70;7.90;;;31.00;43.50;;;;;;5076793;28;20447;-71
2022/08/18 13:10:27;;;;;;;8.17;7.47;;;31.00;44.00;;;;;;5076728;28;20437;-71
2022/08/18 13:12:53;;;;;;;8.87;8.17;;;31.00;44.10;;;;;;5076659;28;20467;-71